sensor_id;sensor_type;location;lat;lon;timestamp;temperature;humidity
39655;DHT22;25336;59.944;11.010;2022-07-23T00:01:08;14.00;66.20
39655;DHT22;25336;59.944;11.010;2022-07-23T00:03:34;14.80;66.80
39655;DHT22;25336;59.944;11.010;2022-07-23T00:06:00;14.70;66.70
39655;DHT22;25336;59.944;11.010;2022-07-23T00:08:25;15.40;67.30
39655;DHT22;25336;59.944;11.010;2022-07-23T00:10:51;15.30;67.30
39655;DHT22;25336;59.944;11.010;2022-07-23T00:13:17;14.60;67.00
39655;DHT22;25336;59.944;11.010;2022-07-23T00:15:42;15.20;67.50
39655;DHT22;25336;59.944;11.010;2022-07-23T00:18:08;15.40;67.80
39655;DHT22;25336;59.944;11.010;2022-07-23T00:20:33;14.50;67.40
39655;DHT22;25336;59.944;11.010;2022-07-23T00:22:59;14.40;67.60
39655;DHT22;25336;59.944;11.010;2022-07-23T00:25:26;14.40;67.80
39655;DHT22;25336;59.944;11.010;2022-07-23T00:27:52;14.40;68.10
39655;DHT22;25336;59.944;11.010;2022-07-23T00:30:17;14.90;68.60
39655;DHT22;25336;59.944;11.010;2022-07-23T00:32:48;14.80;68.70
39655;DHT22;25336;59.944;11.010;2022-07-23T00:35:14;15.20;69.30
39655;DHT22;25336;59.944;11.010;2022-07-23T00:37:40;14.30;68.70
39655;DHT22;25336;59.944;11.010;2022-07-23T00:40:06;14.30;68.70
39655;DHT22;25336;59.944;11.010;2022-07-23T00:42:32;14.30;68.70
39655;DHT22;25336;59.944;11.010;2022-07-23T00:44:58;14.30;68.80
39655;DHT22;25336;59.944;11.010;2022-07-23T00:47:23;14.40;69.60
39655;DHT22;25336;59.944;11.010;2022-07-23T00:49:49;14.20;68.70
39655;DHT22;25336;59.944;11.010;2022-07-23T00:52:15;14.20;68.60
39655;DHT22;25336;59.944;11.010;2022-07-23T00:54:41;14.20;68.70
39655;DHT22;25336;59.944;11.010;2022-07-23T00:57:07;14.20;68.70
39655;DHT22;25336;59.944;11.010;2022-07-23T00:59:32;14.80;69.00
39655;DHT22;25336;59.944;11.010;2022-07-23T01:01:58;14.30;68.70
39655;DHT22;25336;59.944;11.010;2022-07-23T01:04:23;14.10;68.50
39655;DHT22;25336;59.944;11.010;2022-07-23T01:06:49;14.10;68.40
39655;DHT22;25336;59.944;11.010;2022-07-23T01:09:15;14.40;68.50
39655;DHT22;25336;59.944;11.010;2022-07-23T01:11:41;14.00;68.30
39655;DHT22;25336;59.944;11.010;2022-07-23T01:14:17;14.00;68.40
39655;DHT22;25336;59.944;11.010;2022-07-23T01:16:46;13.90;68.60
39655;DHT22;25336;59.944;11.010;2022-07-23T01:19:12;13.90;68.40
39655;DHT22;25336;59.944;11.010;2022-07-23T01:21:46;13.80;68.40
39655;DHT22;25336;59.944;11.010;2022-07-23T01:24:13;13.80;68.60
39655;DHT22;25336;59.944;11.010;2022-07-23T01:26:43;13.80;68.60
39655;DHT22;25336;59.944;11.010;2022-07-23T01:29:09;13.70;68.50
39655;DHT22;25336;59.944;11.010;2022-07-23T01:31:35;13.70;68.60
39655;DHT22;25336;59.944;11.010;2022-07-23T01:34:01;13.70;68.60
39655;DHT22;25336;59.944;11.010;2022-07-23T01:36:27;13.70;68.60
39655;DHT22;25336;59.944;11.010;2022-07-23T01:38:52;14.00;68.80
39655;DHT22;25336;59.944;11.010;2022-07-23T01:41:18;13.60;68.60
39655;DHT22;25336;59.944;11.010;2022-07-23T01:43:44;14.50;69.10
39655;DHT22;25336;59.944;11.010;2022-07-23T01:46:10;14.30;69.00
39655;DHT22;25336;59.944;11.010;2022-07-23T01:48:35;14.00;68.90
39655;DHT22;25336;59.944;11.010;2022-07-23T01:51:01;13.50;68.70
39655;DHT22;25336;59.944;11.010;2022-07-23T01:53:26;13.40;68.70
39655;DHT22;25336;59.944;11.010;2022-07-23T01:55:52;13.40;68.80
39655;DHT22;25336;59.944;11.010;2022-07-23T01:58:18;13.90;69.20
39655;DHT22;25336;59.944;11.010;2022-07-23T02:00:43;13.40;68.90
39655;DHT22;25336;59.944;11.010;2022-07-23T02:03:09;13.40;68.90
39655;DHT22;25336;59.944;11.010;2022-07-23T02:05:34;13.30;68.90
39655;DHT22;25336;59.944;11.010;2022-07-23T02:08:00;14.10;69.30
39655;DHT22;25336;59.944;11.010;2022-07-23T02:10:27;13.20;68.80
39655;DHT22;25336;59.944;11.010;2022-07-23T02:12:52;13.20;69.00
39655;DHT22;25336;59.944;11.010;2022-07-23T02:15:18;13.20;69.30
39655;DHT22;25336;59.944;11.010;2022-07-23T02:17:44;13.20;69.50
39655;DHT22;25336;59.944;11.010;2022-07-23T02:20:10;13.20;69.70
39655;DHT22;25336;59.944;11.010;2022-07-23T02:22:36;13.20;69.90
39655;DHT22;25336;59.944;11.010;2022-07-23T02:25:03;13.20;70.00
39655;DHT22;25336;59.944;11.010;2022-07-23T02:27:29;13.20;70.10
39655;DHT22;25336;59.944;11.010;2022-07-23T02:29:54;13.10;70.10
39655;DHT22;25336;59.944;11.010;2022-07-23T02:32:20;13.10;70.10
39655;DHT22;25336;59.944;11.010;2022-07-23T02:34:49;13.10;70.00
39655;DHT22;25336;59.944;11.010;2022-07-23T02:37:15;13.10;70.00
39655;DHT22;25336;59.944;11.010;2022-07-23T02:39:41;13.10;70.00
39655;DHT22;25336;59.944;11.010;2022-07-23T02:42:06;13.10;70.00
39655;DHT22;25336;59.944;11.010;2022-07-23T02:44:32;13.10;70.00
39655;DHT22;25336;59.944;11.010;2022-07-23T02:46:58;13.10;70.00
39655;DHT22;25336;59.944;11.010;2022-07-23T02:49:23;13.10;70.10
39655;DHT22;25336;59.944;11.010;2022-07-23T02:51:49;13.60;70.40
39655;DHT22;25336;59.944;11.010;2022-07-23T02:54:15;13.00;70.10
39655;DHT22;25336;59.944;11.010;2022-07-23T02:56:41;13.00;70.10
39655;DHT22;25336;59.944;11.010;2022-07-23T02:59:07;13.00;70.10
39655;DHT22;25336;59.944;11.010;2022-07-23T03:01:32;13.40;70.30
39655;DHT22;25336;59.944;11.010;2022-07-23T03:03:58;13.00;70.10
39655;DHT22;25336;59.944;11.010;2022-07-23T03:06:23;13.80;70.50
39655;DHT22;25336;59.944;11.010;2022-07-23T03:08:49;13.00;69.80
39655;DHT22;25336;59.944;11.010;2022-07-23T03:11:15;13.60;70.20
39655;DHT22;25336;59.944;11.010;2022-07-23T03:13:41;13.00;69.80
39655;DHT22;25336;59.944;11.010;2022-07-23T03:16:07;12.90;69.90
39655;DHT22;25336;59.944;11.010;2022-07-23T03:18:33;12.90;69.90
39655;DHT22;25336;59.944;11.010;2022-07-23T03:20:59;13.50;70.30
39655;DHT22;25336;59.944;11.010;2022-07-23T03:23:25;12.90;70.10
39655;DHT22;25336;59.944;11.010;2022-07-23T03:25:51;13.60;70.60
39655;DHT22;25336;59.944;11.010;2022-07-23T03:28:19;13.10;70.30
39655;DHT22;25336;59.944;11.010;2022-07-23T03:30:46;13.50;70.80
39655;DHT22;25336;59.944;11.010;2022-07-23T03:33:21;13.60;70.90
39655;DHT22;25336;59.944;11.010;2022-07-23T03:35:47;12.90;70.70
39655;DHT22;25336;59.944;11.010;2022-07-23T03:38:13;12.90;70.60
39655;DHT22;25336;59.944;11.010;2022-07-23T03:40:39;13.00;70.80
39655;DHT22;25336;59.944;11.010;2022-07-23T03:43:05;13.00;70.90
39655;DHT22;25336;59.944;11.010;2022-07-23T03:45:31;13.00;71.00
39655;DHT22;25336;59.944;11.010;2022-07-23T03:47:56;13.00;71.20
39655;DHT22;25336;59.944;11.010;2022-07-23T03:50:22;13.10;71.30
39655;DHT22;25336;59.944;11.010;2022-07-23T03:52:48;12.80;71.20
39655;DHT22;25336;59.944;11.010;2022-07-23T03:55:14;13.20;71.70
39655;DHT22;25336;59.944;11.010;2022-07-23T03:57:40;13.20;71.80
39655;DHT22;25336;59.944;11.010;2022-07-23T04:00:06;13.90;72.30
39655;DHT22;25336;59.944;11.010;2022-07-23T04:02:34;13.30;72.00
39655;DHT22;25336;59.944;11.010;2022-07-23T04:04:59;13.30;72.00
39655;DHT22;25336;59.944;11.010;2022-07-23T04:07:26;13.40;72.10
39655;DHT22;25336;59.944;11.010;2022-07-23T04:09:52;13.40;72.20
39655;DHT22;25336;59.944;11.010;2022-07-23T04:12:18;14.10;72.80
39655;DHT22;25336;59.944;11.010;2022-07-23T04:14:43;13.50;72.50
39655;DHT22;25336;59.944;11.010;2022-07-23T04:17:11;13.60;72.50
39655;DHT22;25336;59.944;11.010;2022-07-23T04:19:38;14.90;73.30
39655;DHT22;25336;59.944;11.010;2022-07-23T04:22:07;14.80;73.30
39655;DHT22;25336;59.944;11.010;2022-07-23T04:24:33;14.50;73.00
39655;DHT22;25336;59.944;11.010;2022-07-23T04:26:59;14.50;73.00
39655;DHT22;25336;59.944;11.010;2022-07-23T04:29:24;14.70;72.90
39655;DHT22;25336;59.944;11.010;2022-07-23T04:31:50;14.40;72.70
39655;DHT22;25336;59.944;11.010;2022-07-23T04:34:16;14.10;72.50
39655;DHT22;25336;59.944;11.010;2022-07-23T04:36:42;14.10;72.40
39655;DHT22;25336;59.944;11.010;2022-07-23T04:39:08;15.40;73.30
39655;DHT22;25336;59.944;11.010;2022-07-23T04:41:33;14.20;72.60
39655;DHT22;25336;59.944;11.010;2022-07-23T04:44:00;14.30;72.70
39655;DHT22;25336;59.944;11.010;2022-07-23T04:46:25;14.10;72.70
39655;DHT22;25336;59.944;11.010;2022-07-23T04:48:51;14.40;72.80
39655;DHT22;25336;59.944;11.010;2022-07-23T04:51:17;14.50;72.90
39655;DHT22;25336;59.944;11.010;2022-07-23T04:53:42;15.40;73.40
39655;DHT22;25336;59.944;11.010;2022-07-23T04:56:08;15.60;73.50
39655;DHT22;25336;59.944;11.010;2022-07-23T04:58:34;14.80;73.00
39655;DHT22;25336;59.944;11.010;2022-07-23T05:00:59;15.30;73.30
39655;DHT22;25336;59.944;11.010;2022-07-23T05:03:25;15.10;72.80
39655;DHT22;25336;59.944;11.010;2022-07-23T05:05:51;15.10;72.70
39655;DHT22;25336;59.944;11.010;2022-07-23T05:08:16;15.20;72.50
39655;DHT22;25336;59.944;11.010;2022-07-23T05:10:42;15.20;72.10
39655;DHT22;25336;59.944;11.010;2022-07-23T05:13:08;15.30;71.90
39655;DHT22;25336;59.944;11.010;2022-07-23T05:15:34;16.40;72.40
39655;DHT22;25336;59.944;11.010;2022-07-23T05:17:59;15.40;71.70
39655;DHT22;25336;59.944;11.010;2022-07-23T05:20:25;16.40;72.10
39655;DHT22;25336;59.944;11.010;2022-07-23T05:22:51;15.60;71.40
39655;DHT22;25336;59.944;11.010;2022-07-23T05:25:17;16.30;71.60
39655;DHT22;25336;59.944;11.010;2022-07-23T05:27:42;15.70;71.10
39655;DHT22;25336;59.944;11.010;2022-07-23T05:30:08;15.70;70.90
39655;DHT22;25336;59.944;11.010;2022-07-23T05:32:34;15.80;70.90
39655;DHT22;25336;59.944;11.010;2022-07-23T05:35:02;15.80;70.80
39655;DHT22;25336;59.944;11.010;2022-07-23T05:37:28;15.90;70.70
39655;DHT22;25336;59.944;11.010;2022-07-23T05:39:54;15.90;70.60
39655;DHT22;25336;59.944;11.010;2022-07-23T05:42:19;15.90;70.50
39655;DHT22;25336;59.944;11.010;2022-07-23T05:44:45;16.40;70.70
39655;DHT22;25336;59.944;11.010;2022-07-23T05:47:10;16.00;70.40
39655;DHT22;25336;59.944;11.010;2022-07-23T05:49:37;16.00;70.40
39655;DHT22;25336;59.944;11.010;2022-07-23T05:52:06;16.00;70.60
39655;DHT22;25336;59.944;11.010;2022-07-23T05:54:35;16.90;71.00
39655;DHT22;25336;59.944;11.010;2022-07-23T05:57:01;16.20;70.30
39655;DHT22;25336;59.944;11.010;2022-07-23T05:59:27;16.20;70.20
39655;DHT22;25336;59.944;11.010;2022-07-23T06:01:53;16.30;70.30
39655;DHT22;25336;59.944;11.010;2022-07-23T06:04:18;16.30;70.10
39655;DHT22;25336;59.944;11.010;2022-07-23T06:06:44;16.40;69.70
39655;DHT22;25336;59.944;11.010;2022-07-23T06:09:10;16.30;69.30
39655;DHT22;25336;59.944;11.010;2022-07-23T06:11:39;16.50;69.00
39655;DHT22;25336;59.944;11.010;2022-07-23T06:14:05;16.60;68.60
39655;DHT22;25336;59.944;11.010;2022-07-23T06:16:30;16.60;68.30
39655;DHT22;25336;59.944;11.010;2022-07-23T06:18:56;16.70;68.10
39655;DHT22;25336;59.944;11.010;2022-07-23T06:21:22;16.70;67.90
39655;DHT22;25336;59.944;11.010;2022-07-23T06:23:48;16.80;67.70
39655;DHT22;25336;59.944;11.010;2022-07-23T06:26:16;17.90;68.50
39655;DHT22;25336;59.944;11.010;2022-07-23T06:28:41;16.90;67.40
39655;DHT22;25336;59.944;11.010;2022-07-23T06:31:07;17.10;67.20
39655;DHT22;25336;59.944;11.010;2022-07-23T06:33:33;18.10;67.80
39655;DHT22;25336;59.944;11.010;2022-07-23T06:35:59;17.10;66.80
39655;DHT22;25336;59.944;11.010;2022-07-23T06:38:27;17.20;66.60
39655;DHT22;25336;59.944;11.010;2022-07-23T06:40:55;17.20;66.20
39655;DHT22;25336;59.944;11.010;2022-07-23T06:43:21;17.20;65.60
39655;DHT22;25336;59.944;11.010;2022-07-23T06:45:46;17.30;65.70
39655;DHT22;25336;59.944;11.010;2022-07-23T06:48:12;17.40;65.40
39655;DHT22;25336;59.944;11.010;2022-07-23T06:50:38;17.40;65.10
39655;DHT22;25336;59.944;11.010;2022-07-23T06:53:06;17.40;64.60
39655;DHT22;25336;59.944;11.010;2022-07-23T06:55:32;17.40;64.60
39655;DHT22;25336;59.944;11.010;2022-07-23T06:57:58;17.50;64.50
39655;DHT22;25336;59.944;11.010;2022-07-23T07:00:24;17.50;64.30
39655;DHT22;25336;59.944;11.010;2022-07-23T07:02:53;18.30;64.70
39655;DHT22;25336;59.944;11.010;2022-07-23T07:05:19;17.60;63.90
39655;DHT22;25336;59.944;11.010;2022-07-23T07:07:45;17.60;63.60
39655;DHT22;25336;59.944;11.010;2022-07-23T07:10:10;17.70;63.80
39655;DHT22;25336;59.944;11.010;2022-07-23T07:12:36;17.70;63.80
39655;DHT22;25336;59.944;11.010;2022-07-23T07:15:02;18.10;63.50
39655;DHT22;25336;59.944;11.010;2022-07-23T07:17:27;17.80;62.80
39655;DHT22;25336;59.944;11.010;2022-07-23T07:19:53;17.90;62.40
39655;DHT22;25336;59.944;11.010;2022-07-23T07:22:21;18.20;62.50
39655;DHT22;25336;59.944;11.010;2022-07-23T07:24:47;18.90;62.70
39655;DHT22;25336;59.944;11.010;2022-07-23T07:27:12;18.30;62.60
39655;DHT22;25336;59.944;11.010;2022-07-23T07:29:40;18.40;62.20
39655;DHT22;25336;59.944;11.010;2022-07-23T07:32:06;18.10;62.00
39655;DHT22;25336;59.944;11.010;2022-07-23T07:34:32;18.20;61.60
39655;DHT22;25336;59.944;11.010;2022-07-23T07:36:57;18.20;61.10
39655;DHT22;25336;59.944;11.010;2022-07-23T07:39:26;18.30;61.10
39655;DHT22;25336;59.944;11.010;2022-07-23T07:41:51;18.40;60.70
39655;DHT22;25336;59.944;11.010;2022-07-23T07:44:17;18.40;60.60
39655;DHT22;25336;59.944;11.010;2022-07-23T07:46:43;18.50;60.90
39655;DHT22;25336;59.944;11.010;2022-07-23T07:49:09;18.60;60.80
39655;DHT22;25336;59.944;11.010;2022-07-23T07:51:34;18.60;60.30
39655;DHT22;25336;59.944;11.010;2022-07-23T07:54:00;18.70;60.10
39655;DHT22;25336;59.944;11.010;2022-07-23T07:56:26;18.70;59.70
39655;DHT22;25336;59.944;11.010;2022-07-23T07:58:52;18.80;59.80
39655;DHT22;25336;59.944;11.010;2022-07-23T08:01:18;19.40;59.80
39655;DHT22;25336;59.944;11.010;2022-07-23T08:03:45;18.80;59.60
39655;DHT22;25336;59.944;11.010;2022-07-23T08:06:11;18.90;59.40
39655;DHT22;25336;59.944;11.010;2022-07-23T08:08:37;18.90;59.40
39655;DHT22;25336;59.944;11.010;2022-07-23T08:11:02;19.00;59.50
39655;DHT22;25336;59.944;11.010;2022-07-23T08:13:28;19.10;59.30
39655;DHT22;25336;59.944;11.010;2022-07-23T08:15:54;19.10;59.20
39655;DHT22;25336;59.944;11.010;2022-07-23T08:18:19;19.20;58.90
39655;DHT22;25336;59.944;11.010;2022-07-23T08:20:45;19.80;59.10
39655;DHT22;25336;59.944;11.010;2022-07-23T08:23:11;19.30;58.50
39655;DHT22;25336;59.944;11.010;2022-07-23T08:25:42;19.40;58.20
39655;DHT22;25336;59.944;11.010;2022-07-23T08:28:11;19.40;57.90
39655;DHT22;25336;59.944;11.010;2022-07-23T08:30:38;19.50;57.90
39655;DHT22;25336;59.944;11.010;2022-07-23T08:33:10;19.50;57.90
39655;DHT22;25336;59.944;11.010;2022-07-23T08:35:47;19.50;57.60
39655;DHT22;25336;59.944;11.010;2022-07-23T08:38:16;19.50;56.90
39655;DHT22;25336;59.944;11.010;2022-07-23T08:40:49;19.60;57.30
39655;DHT22;25336;59.944;11.010;2022-07-23T08:43:19;19.60;57.10
39655;DHT22;25336;59.944;11.010;2022-07-23T08:45:47;20.10;57.60
39655;DHT22;25336;59.944;11.010;2022-07-23T08:48:15;20.50;57.50
39655;DHT22;25336;59.944;11.010;2022-07-23T08:50:48;19.70;57.20
39655;DHT22;25336;59.944;11.010;2022-07-23T08:53:16;19.80;57.00
39655;DHT22;25336;59.944;11.010;2022-07-23T08:55:52;19.90;57.30
39655;DHT22;25336;59.944;11.010;2022-07-23T08:58:19;20.00;57.10
39655;DHT22;25336;59.944;11.010;2022-07-23T09:00:46;20.00;57.30
39655;DHT22;25336;59.944;11.010;2022-07-23T09:03:17;20.10;57.10
39655;DHT22;25336;59.944;11.010;2022-07-23T09:05:42;20.20;57.60
39655;DHT22;25336;59.944;11.010;2022-07-23T09:10:51;20.30;56.80
39655;DHT22;25336;59.944;11.010;2022-07-23T09:16:07;20.50;55.80
39655;DHT22;25336;59.944;11.010;2022-07-23T09:21:19;20.60;55.50
39655;DHT22;25336;59.944;11.010;2022-07-23T09:29:03;20.80;54.60
39655;DHT22;25336;59.944;11.010;2022-07-23T09:31:44;20.80;55.20
39655;DHT22;25336;59.944;11.010;2022-07-23T09:34:13;20.90;53.70
39655;DHT22;25336;59.944;11.010;2022-07-23T09:36:40;21.00;54.20
39655;DHT22;25336;59.944;11.010;2022-07-23T09:39:07;21.00;54.30
39655;DHT22;25336;59.944;11.010;2022-07-23T09:41:41;21.10;54.50
39655;DHT22;25336;59.944;11.010;2022-07-23T09:44:16;21.20;54.20
39655;DHT22;25336;59.944;11.010;2022-07-23T09:46:44;21.40;53.80
39655;DHT22;25336;59.944;11.010;2022-07-23T09:49:23;21.50;54.20
39655;DHT22;25336;59.944;11.010;2022-07-23T09:51:56;21.70;52.90
39655;DHT22;25336;59.944;11.010;2022-07-23T09:54:28;21.70;53.20
39655;DHT22;25336;59.944;11.010;2022-07-23T09:56:57;21.70;52.90
39655;DHT22;25336;59.944;11.010;2022-07-23T09:59:26;21.80;52.90
39655;DHT22;25336;59.944;11.010;2022-07-23T10:01:55;21.90;52.30
39655;DHT22;25336;59.944;11.010;2022-07-23T10:04:23;21.90;52.60
39655;DHT22;25336;59.944;11.010;2022-07-23T10:06:52;21.90;52.40
39655;DHT22;25336;59.944;11.010;2022-07-23T10:09:29;22.00;51.40
39655;DHT22;25336;59.944;11.010;2022-07-23T10:11:58;22.10;51.10
39655;DHT22;25336;59.944;11.010;2022-07-23T10:14:39;22.00;51.70
39655;DHT22;25336;59.944;11.010;2022-07-23T10:17:05;22.10;52.00
39655;DHT22;25336;59.944;11.010;2022-07-23T10:19:32;22.80;51.30
39655;DHT22;25336;59.944;11.010;2022-07-23T10:24:58;22.20;50.80
39655;DHT22;25336;59.944;11.010;2022-07-23T10:41:38;22.20;50.80
39655;DHT22;25336;59.944;11.010;2022-07-23T10:44:19;22.30;49.90
39655;DHT22;25336;59.944;11.010;2022-07-23T10:47:27;22.30;50.10
39655;DHT22;25336;59.944;11.010;2022-07-23T10:50:28;22.40;49.90
39655;DHT22;25336;59.944;11.010;2022-07-23T10:58:03;22.60;50.50
39655;DHT22;25336;59.944;11.010;2022-07-23T11:00:38;22.70;50.00
39655;DHT22;25336;59.944;11.010;2022-07-23T11:03:29;22.80;49.90
39655;DHT22;25336;59.944;11.010;2022-07-23T11:05:55;22.80;49.00
39655;DHT22;25336;59.944;11.010;2022-07-23T11:08:20;22.90;49.50
39655;DHT22;25336;59.944;11.010;2022-07-23T11:10:53;22.80;49.30
39655;DHT22;25336;59.944;11.010;2022-07-23T11:16:20;23.00;48.70
39655;DHT22;25336;59.944;11.010;2022-07-23T11:18:52;23.00;48.30
39655;DHT22;25336;59.944;11.010;2022-07-23T11:32:27;23.00;48.90
39655;DHT22;25336;59.944;11.010;2022-07-23T11:34:53;23.10;48.70
39655;DHT22;25336;59.944;11.010;2022-07-23T11:37:40;23.10;49.40
39655;DHT22;25336;59.944;11.010;2022-07-23T11:40:09;23.20;48.40
39655;DHT22;25336;59.944;11.010;2022-07-23T11:42:39;23.20;49.20
39655;DHT22;25336;59.944;11.010;2022-07-23T11:45:07;23.30;48.40
39655;DHT22;25336;59.944;11.010;2022-07-23T11:47:33;23.30;49.10
39655;DHT22;25336;59.944;11.010;2022-07-23T11:50:02;23.60;49.20
39655;DHT22;25336;59.944;11.010;2022-07-23T11:52:29;23.40;48.60
39655;DHT22;25336;59.944;11.010;2022-07-23T11:55:07;23.40;48.60
39655;DHT22;25336;59.944;11.010;2022-07-23T11:57:35;23.50;48.20
39655;DHT22;25336;59.944;11.010;2022-07-23T12:00:11;23.50;48.40
39655;DHT22;25336;59.944;11.010;2022-07-23T12:02:41;23.60;47.60
39655;DHT22;25336;59.944;11.010;2022-07-23T12:05:11;23.60;47.80
39655;DHT22;25336;59.944;11.010;2022-07-23T12:07:39;23.60;48.00
39655;DHT22;25336;59.944;11.010;2022-07-23T12:12:50;23.70;47.30
39655;DHT22;25336;59.944;11.010;2022-07-23T12:15:19;23.70;47.70
39655;DHT22;25336;59.944;11.010;2022-07-23T12:17:47;23.80;48.00
39655;DHT22;25336;59.944;11.010;2022-07-23T12:20:16;23.80;48.10
39655;DHT22;25336;59.944;11.010;2022-07-23T12:22:44;23.90;47.50
39655;DHT22;25336;59.944;11.010;2022-07-23T12:27:37;24.00;47.10
39655;DHT22;25336;59.944;11.010;2022-07-23T12:30:28;24.00;47.60
39655;DHT22;25336;59.944;11.010;2022-07-23T12:32:57;24.10;48.10
39655;DHT22;25336;59.944;11.010;2022-07-23T12:35:28;24.20;48.30
39655;DHT22;25336;59.944;11.010;2022-07-23T12:38:00;24.30;47.20
39655;DHT22;25336;59.944;11.010;2022-07-23T12:42:56;24.40;46.70
39655;DHT22;25336;59.944;11.010;2022-07-23T12:45:23;24.50;46.70
39655;DHT22;25336;59.944;11.010;2022-07-23T12:50:44;24.50;46.30
39655;DHT22;25336;59.944;11.010;2022-07-23T12:53:16;24.60;45.30
39655;DHT22;25336;59.944;11.010;2022-07-23T12:55:43;24.60;46.10
39655;DHT22;25336;59.944;11.010;2022-07-23T12:58:11;24.60;46.40
39655;DHT22;25336;59.944;11.010;2022-07-23T13:00:51;24.70;47.20
39655;DHT22;25336;59.944;11.010;2022-07-23T13:06:28;24.80;46.20
39655;DHT22;25336;59.944;11.010;2022-07-23T13:08:54;24.90;46.20
39655;DHT22;25336;59.944;11.010;2022-07-23T13:11:20;24.90;46.40
39655;DHT22;25336;59.944;11.010;2022-07-23T13:13:46;24.90;46.20
39655;DHT22;25336;59.944;11.010;2022-07-23T13:16:11;25.00;45.80
39655;DHT22;25336;59.944;11.010;2022-07-23T13:18:37;25.10;45.40
39655;DHT22;25336;59.944;11.010;2022-07-23T13:21:04;25.10;45.20
39655;DHT22;25336;59.944;11.010;2022-07-23T13:23:30;25.10;45.40
39655;DHT22;25336;59.944;11.010;2022-07-23T13:25:55;25.10;45.80
39655;DHT22;25336;59.944;11.010;2022-07-23T13:28:22;25.10;45.70
39655;DHT22;25336;59.944;11.010;2022-07-23T13:30:49;25.10;45.70
39655;DHT22;25336;59.944;11.010;2022-07-23T13:33:17;25.10;45.30
39655;DHT22;25336;59.944;11.010;2022-07-23T13:35:43;25.10;44.80
39655;DHT22;25336;59.944;11.010;2022-07-23T13:38:09;25.10;45.10
39655;DHT22;25336;59.944;11.010;2022-07-23T13:40:37;25.10;45.00
39655;DHT22;25336;59.944;11.010;2022-07-23T13:43:06;25.20;44.90
39655;DHT22;25336;59.944;11.010;2022-07-23T13:45:32;25.10;45.30
39655;DHT22;25336;59.944;11.010;2022-07-23T13:47:58;25.10;45.70
39655;DHT22;25336;59.944;11.010;2022-07-23T13:50:24;25.10;45.70
39655;DHT22;25336;59.944;11.010;2022-07-23T13:52:49;25.20;46.10
39655;DHT22;25336;59.944;11.010;2022-07-23T13:55:15;25.20;45.80
39655;DHT22;25336;59.944;11.010;2022-07-23T13:57:41;25.30;45.70
39655;DHT22;25336;59.944;11.010;2022-07-23T14:00:08;25.40;45.90
39655;DHT22;25336;59.944;11.010;2022-07-23T14:02:36;25.50;45.60
39655;DHT22;25336;59.944;11.010;2022-07-23T14:05:07;25.60;46.20
39655;DHT22;25336;59.944;11.010;2022-07-23T14:07:34;25.60;46.00
39655;DHT22;25336;59.944;11.010;2022-07-23T14:09:59;25.80;45.40
39655;DHT22;25336;59.944;11.010;2022-07-23T14:12:26;25.80;44.70
39655;DHT22;25336;59.944;11.010;2022-07-23T14:14:51;25.90;45.40
39655;DHT22;25336;59.944;11.010;2022-07-23T14:17:18;26.00;45.20
39655;DHT22;25336;59.944;11.010;2022-07-23T14:19:44;26.10;45.40
39655;DHT22;25336;59.944;11.010;2022-07-23T14:22:09;26.10;45.40
39655;DHT22;25336;59.944;11.010;2022-07-23T14:24:35;26.20;44.30
39655;DHT22;25336;59.944;11.010;2022-07-23T14:27:03;26.20;43.90
39655;DHT22;25336;59.944;11.010;2022-07-23T14:29:29;26.20;43.80
39655;DHT22;25336;59.944;11.010;2022-07-23T14:31:55;26.20;43.80
39655;DHT22;25336;59.944;11.010;2022-07-23T14:34:21;26.20;44.10
39655;DHT22;25336;59.944;11.010;2022-07-23T14:36:47;26.20;44.00
39655;DHT22;25336;59.944;11.010;2022-07-23T14:39:12;26.20;44.50
39655;DHT22;25336;59.944;11.010;2022-07-23T14:41:38;26.20;44.80
39655;DHT22;25336;59.944;11.010;2022-07-23T14:44:04;26.30;44.50
39655;DHT22;25336;59.944;11.010;2022-07-23T14:46:30;26.30;44.50
39655;DHT22;25336;59.944;11.010;2022-07-23T14:48:56;26.40;44.20
39655;DHT22;25336;59.944;11.010;2022-07-23T14:51:22;26.40;43.80
39655;DHT22;25336;59.944;11.010;2022-07-23T14:53:48;26.50;43.80
39655;DHT22;25336;59.944;11.010;2022-07-23T14:56:14;26.50;43.90
39655;DHT22;25336;59.944;11.010;2022-07-23T14:58:40;26.50;43.50
39655;DHT22;25336;59.944;11.010;2022-07-23T15:01:06;26.50;43.30
39655;DHT22;25336;59.944;11.010;2022-07-23T15:03:32;26.50;43.00
39655;DHT22;25336;59.944;11.010;2022-07-23T15:05:58;26.50;42.80
39655;DHT22;25336;59.944;11.010;2022-07-23T15:08:24;26.50;42.60
39655;DHT22;25336;59.944;11.010;2022-07-23T15:10:50;26.50;42.90
39655;DHT22;25336;59.944;11.010;2022-07-23T15:13:16;26.50;42.70
39655;DHT22;25336;59.944;11.010;2022-07-23T15:15:42;26.50;42.80
39655;DHT22;25336;59.944;11.010;2022-07-23T15:18:07;26.50;43.00
39655;DHT22;25336;59.944;11.010;2022-07-23T15:20:33;26.70;43.00
39655;DHT22;25336;59.944;11.010;2022-07-23T15:22:59;26.50;43.10
39655;DHT22;25336;59.944;11.010;2022-07-23T15:25:25;26.50;43.30
39655;DHT22;25336;59.944;11.010;2022-07-23T15:27:50;26.50;43.30
39655;DHT22;25336;59.944;11.010;2022-07-23T15:30:16;26.60;43.20
39655;DHT22;25336;59.944;11.010;2022-07-23T15:32:41;26.50;43.10
39655;DHT22;25336;59.944;11.010;2022-07-23T15:35:07;26.50;43.00
39655;DHT22;25336;59.944;11.010;2022-07-23T15:37:34;26.50;43.20
39655;DHT22;25336;59.944;11.010;2022-07-23T15:40:01;26.40;43.30
39655;DHT22;25336;59.944;11.010;2022-07-23T15:42:28;26.40;43.30
39655;DHT22;25336;59.944;11.010;2022-07-23T15:44:54;26.40;43.20
39655;DHT22;25336;59.944;11.010;2022-07-23T15:47:22;26.30;43.00
39655;DHT22;25336;59.944;11.010;2022-07-23T15:49:48;26.30;43.00
39655;DHT22;25336;59.944;11.010;2022-07-23T15:52:14;26.30;42.80
39655;DHT22;25336;59.944;11.010;2022-07-23T15:54:40;26.20;43.00
39655;DHT22;25336;59.944;11.010;2022-07-23T15:57:05;26.10;43.00
39655;DHT22;25336;59.944;11.010;2022-07-23T15:59:31;26.00;42.90
39655;DHT22;25336;59.944;11.010;2022-07-23T16:01:58;26.00;43.10
39655;DHT22;25336;59.944;11.010;2022-07-23T16:04:23;25.90;43.30
39655;DHT22;25336;59.944;11.010;2022-07-23T16:06:50;25.80;43.30
39655;DHT22;25336;59.944;11.010;2022-07-23T16:09:16;25.80;43.30
39655;DHT22;25336;59.944;11.010;2022-07-23T16:11:41;25.70;43.50
39655;DHT22;25336;59.944;11.010;2022-07-23T16:14:07;25.60;43.80
39655;DHT22;25336;59.944;11.010;2022-07-23T16:16:34;25.60;43.80
39655;DHT22;25336;59.944;11.010;2022-07-23T16:19:00;25.60;43.80